createdAt,value
2017-12-31T00:00:45.377Z,1.40
2017-12-31T00:03:14.290Z,1.00
2017-12-31T00:05:44.521Z,1.90
2017-12-31T00:08:13.088Z,2.20
2017-12-31T00:10:41.875Z,1.20
2017-12-31T00:13:10.957Z,1.40
2017-12-31T00:15:40.104Z,2.00
2017-12-31T00:18:09.139Z,1.30
2017-12-31T00:20:37.502Z,3.77
2017-12-31T00:23:07.134Z,1.80
2017-12-31T00:25:35.628Z,1.60
2017-12-31T00:28:04.047Z,1.50
2017-12-31T00:30:33.145Z,1.60
2017-12-31T00:33:01.571Z,2.00
2017-12-31T00:35:30.209Z,1.20
2017-12-31T00:37:58.772Z,1.20
2017-12-31T00:40:26.935Z,1.27
2017-12-31T00:42:55.298Z,1.60
2017-12-31T00:45:24.289Z,3.50
2017-12-31T00:47:52.916Z,1.30
2017-12-31T00:50:21.643Z,1.50
2017-12-31T00:52:50.920Z,1.20
2017-12-31T00:55:19.308Z,1.57
2017-12-31T00:57:48.162Z,1.30
2017-12-31T01:00:17.316Z,1.70
2017-12-31T01:02:45.655Z,1.30
2017-12-31T01:05:14.552Z,1.43
2017-12-31T01:07:42.907Z,1.37
2017-12-31T01:10:11.937Z,2.10
2017-12-31T01:12:40.260Z,1.80
2017-12-31T01:15:08.690Z,2.47
2017-12-31T01:17:37.600Z,1.70
2017-12-31T01:20:06.736Z,2.20
2017-12-31T01:22:35.831Z,1.57
2017-12-31T01:25:04.227Z,1.63
2017-12-31T01:27:33.312Z,2.13
2017-12-31T01:30:01.967Z,2.00
2017-12-31T01:32:31.324Z,2.00
2017-12-31T01:34:59.649Z,2.13
2017-12-31T01:37:28.335Z,2.33
2017-12-31T01:39:57.020Z,1.67
2017-12-31T01:42:25.093Z,2.40
2017-12-31T01:44:53.727Z,2.00
2017-12-31T01:47:22.849Z,2.50
2017-12-31T01:49:51.944Z,2.40
2017-12-31T01:52:20.316Z,2.30
2017-12-31T01:54:49.275Z,3.07
2017-12-31T01:57:17.604Z,2.67
2017-12-31T01:59:46.636Z,2.40
2017-12-31T02:02:15.473Z,2.50
2017-12-31T02:04:44.232Z,2.80
2017-12-31T02:07:12.991Z,3.00
2017-12-31T02:09:41.310Z,2.77
2017-12-31T02:12:09.812Z,3.00
2017-12-31T02:14:39.200Z,3.40
2017-12-31T02:17:09.603Z,2.20
2017-12-31T02:19:37.925Z,2.80
2017-12-31T02:22:07.558Z,2.73
2017-12-31T02:24:37.623Z,3.20
2017-12-31T02:27:07.607Z,2.83
2017-12-31T02:29:36.494Z,2.77
2017-12-31T02:32:05.578Z,3.37
2017-12-31T02:34:34.779Z,2.23
2017-12-31T02:37:03.753Z,2.70
2017-12-31T02:39:32.093Z,3.30
2017-12-31T02:42:00.752Z,3.10
2017-12-31T02:44:31.027Z,3.37
2017-12-31T02:46:59.351Z,2.00
2017-12-31T02:49:28.544Z,2.30
2017-12-31T02:51:57.505Z,2.53
2017-12-31T02:54:25.823Z,3.37
2017-12-31T02:56:54.475Z,2.60
2017-12-31T02:59:23.190Z,3.17
2017-12-31T03:01:52.108Z,3.10
2017-12-31T03:04:21.262Z,3.07
2017-12-31T03:06:50.485Z,2.43
2017-12-31T03:09:19.572Z,2.50
2017-12-31T03:11:48.403Z,3.00
2017-12-31T03:14:17.726Z,2.33
2017-12-31T03:16:46.299Z,1.80
2017-12-31T03:19:15.239Z,2.57
2017-12-31T03:21:44.331Z,2.50
2017-12-31T03:24:12.756Z,2.43
2017-12-31T03:26:41.596Z,2.33
2017-12-31T03:29:10.419Z,2.47
2017-12-31T03:31:39.263Z,3.17
2017-12-31T03:34:08.146Z,3.03
2017-12-31T03:36:36.536Z,2.30
2017-12-31T03:39:04.760Z,2.07
2017-12-31T03:41:33.685Z,1.90
2017-12-31T03:44:02.012Z,2.17
2017-12-31T03:46:31.326Z,2.20
2017-12-31T03:49:00.140Z,2.07
2017-12-31T03:51:28.455Z,2.20
2017-12-31T03:53:56.824Z,2.07
2017-12-31T03:56:25.828Z,1.63
2017-12-31T03:58:54.684Z,1.80
2017-12-31T04:01:23.922Z,2.50
2017-12-31T04:03:52.416Z,2.13
2017-12-31T04:06:20.944Z,1.90
2017-12-31T04:08:49.667Z,2.17
2017-12-31T04:11:18.319Z,1.93
2017-12-31T04:13:46.985Z,1.87
2017-12-31T04:16:16.143Z,1.70
2017-12-31T04:18:45.170Z,1.57
2017-12-31T04:21:14.272Z,1.90
2017-12-31T04:23:42.631Z,4.73
2017-12-31T04:26:11.855Z,1.60
2017-12-31T04:28:40.455Z,1.50
2017-12-31T04:31:09.596Z,1.57
2017-12-31T04:33:37.934Z,2.93
2017-12-31T04:36:06.388Z,1.30
2017-12-31T04:38:34.756Z,1.70
2017-12-31T04:41:03.759Z,1.50
2017-12-31T04:43:34.524Z,2.50
2017-12-31T04:46:04.426Z,1.63
2017-12-31T04:48:33.471Z,1.50
2017-12-31T04:51:03.454Z,1.60
2017-12-31T04:53:31.978Z,1.27
2017-12-31T04:56:01.048Z,1.40
2017-12-31T04:58:29.690Z,1.90
2017-12-31T05:00:58.059Z,1.77
2017-12-31T05:03:26.483Z,1.80
2017-12-31T05:05:54.938Z,1.97
2017-12-31T05:08:23.537Z,1.80
2017-12-31T05:10:51.852Z,1.40
2017-12-31T05:13:21.351Z,1.90
2017-12-31T05:15:50.279Z,1.90
2017-12-31T05:18:19.535Z,1.87
2017-12-31T05:20:48.524Z,1.47
2017-12-31T05:23:16.958Z,1.87
2017-12-31T05:25:45.283Z,1.67
2017-12-31T05:28:13.824Z,1.90
2017-12-31T05:30:42.511Z,1.60
2017-12-31T05:33:10.886Z,1.77
2017-12-31T05:35:40.051Z,2.00
2017-12-31T05:38:08.834Z,1.90
2017-12-31T05:40:38.091Z,1.67
2017-12-31T05:43:06.516Z,1.77
2017-12-31T05:45:35.619Z,1.60
2017-12-31T05:48:04.643Z,2.20
2017-12-31T05:50:33.899Z,1.30
2017-12-31T05:53:02.208Z,1.90
2017-12-31T05:55:31.091Z,1.70
2017-12-31T05:58:01.188Z,1.53
2017-12-31T06:00:29.809Z,1.80
2017-12-31T06:02:59.252Z,1.83
2017-12-31T06:05:28.359Z,2.23
2017-12-31T06:07:56.674Z,1.83
2017-12-31T06:10:25.015Z,1.77
2017-12-31T06:12:53.384Z,1.67
2017-12-31T06:15:22.219Z,2.63
2017-12-31T06:17:51.327Z,2.27
2017-12-31T06:20:20.487Z,2.40
2017-12-31T06:22:48.883Z,1.57
2017-12-31T06:25:17.576Z,1.57
2017-12-31T06:27:46.226Z,1.77
2017-12-31T06:30:15.264Z,1.53
2017-12-31T06:32:43.924Z,2.00
2017-12-31T06:35:13.453Z,2.00
2017-12-31T06:37:42.457Z,1.87
2017-12-31T06:40:10.787Z,1.50
2017-12-31T06:42:39.159Z,1.80
2017-12-31T06:45:08.087Z,1.90
2017-12-31T06:47:36.419Z,2.50
2017-12-31T06:50:05.520Z,1.80
2017-12-31T06:52:34.317Z,2.17
2017-12-31T06:55:03.012Z,1.73
2017-12-31T06:57:31.759Z,1.60
2017-12-31T07:00:01.243Z,1.90
2017-12-31T07:02:30.328Z,2.63
2017-12-31T07:04:59.304Z,1.27
2017-12-31T07:07:28.396Z,1.80
2017-12-31T07:09:57.215Z,2.00
2017-12-31T07:12:25.639Z,1.57
2017-12-31T07:14:54.060Z,2.23
2017-12-31T07:17:23.031Z,2.17
2017-12-31T07:19:52.127Z,1.57
2017-12-31T07:22:21.059Z,1.63
2017-12-31T07:24:50.148Z,2.50
2017-12-31T07:27:18.547Z,2.20
2017-12-31T07:29:46.903Z,2.27
2017-12-31T07:32:15.516Z,2.27
2017-12-31T07:34:44.146Z,2.90
2017-12-31T07:37:13.227Z,1.27
2017-12-31T07:39:41.767Z,1.67
2017-12-31T07:42:10.508Z,2.30
2017-12-31T07:44:38.992Z,2.10
2017-12-31T07:47:07.903Z,1.80
2017-12-31T07:49:36.869Z,2.07
2017-12-31T07:52:06.579Z,2.33
2017-12-31T07:54:35.393Z,2.07
2017-12-31T07:57:04.458Z,2.07
2017-12-31T07:59:33.439Z,1.57
2017-12-31T08:02:01.827Z,1.97
2017-12-31T08:04:39.667Z,1.50
2017-12-31T08:07:08.364Z,1.80
2017-12-31T08:09:37.326Z,2.07
2017-12-31T08:12:06.242Z,2.03
2017-12-31T08:14:34.561Z,1.67
2017-12-31T08:17:03.233Z,2.20
2017-12-31T08:19:32.056Z,1.70
2017-12-31T08:22:00.610Z,1.57
2017-12-31T08:24:30.161Z,2.03
2017-12-31T08:27:01.461Z,1.50
2017-12-31T08:29:30.779Z,2.17
2017-12-31T08:31:59.819Z,3.27
2017-12-31T08:34:28.145Z,1.63
2017-12-31T08:36:57.247Z,2.00
2017-12-31T08:39:26.251Z,2.17
2017-12-31T08:41:54.580Z,1.80
2017-12-31T08:44:22.926Z,1.73
2017-12-31T08:46:51.519Z,1.70
2017-12-31T08:49:20.971Z,2.67
2017-12-31T08:51:49.332Z,1.43
2017-12-31T08:54:17.852Z,2.23
2017-12-31T08:56:46.739Z,2.07
2017-12-31T08:59:15.060Z,1.50
2017-12-31T09:01:44.091Z,1.30
2017-12-31T09:04:12.546Z,2.03
2017-12-31T09:06:40.902Z,2.50
2017-12-31T09:09:09.303Z,2.17
2017-12-31T09:11:38.152Z,1.77
2017-12-31T09:14:06.480Z,1.50
2017-12-31T09:16:35.556Z,2.30
2017-12-31T09:19:04.316Z,2.00
2017-12-31T09:21:32.646Z,1.70
2017-12-31T09:24:00.971Z,2.07
2017-12-31T09:26:29.504Z,2.07
2017-12-31T09:28:58.247Z,1.80
2017-12-31T09:31:26.821Z,2.00
2017-12-31T09:33:55.224Z,2.60
2017-12-31T09:36:24.245Z,2.13
2017-12-31T09:38:52.659Z,1.83
2017-12-31T09:41:21.001Z,1.80
2017-12-31T09:43:49.876Z,1.93
2017-12-31T09:46:18.262Z,2.03
2017-12-31T09:48:47.111Z,1.27
2017-12-31T09:51:16.464Z,1.50
2017-12-31T09:53:45.499Z,1.63
2017-12-31T09:56:14.588Z,2.10
2017-12-31T09:58:43.713Z,1.57
2017-12-31T10:01:12.750Z,1.83
2017-12-31T10:03:41.178Z,1.70
2017-12-31T10:06:10.273Z,1.90
2017-12-31T10:08:39.071Z,2.20
2017-12-31T10:11:07.468Z,1.67
2017-12-31T10:13:36.584Z,1.90
2017-12-31T10:16:04.895Z,1.90
2017-12-31T10:18:34.830Z,1.63
2017-12-31T10:21:03.246Z,1.50
2017-12-31T10:23:33.808Z,1.80
2017-12-31T10:26:03.332Z,1.60
2017-12-31T10:28:32.306Z,2.00
2017-12-31T10:31:01.132Z,2.10
2017-12-31T10:33:30.332Z,2.97
2017-12-31T10:35:58.715Z,1.33
2017-12-31T10:38:27.548Z,1.60
2017-12-31T10:40:57.115Z,1.80
2017-12-31T10:43:25.511Z,1.90
2017-12-31T10:45:55.032Z,1.90
2017-12-31T10:48:23.375Z,2.57
2017-12-31T10:50:51.766Z,1.60
2017-12-31T10:53:20.651Z,1.67
2017-12-31T10:55:49.060Z,2.70
2017-12-31T10:58:18.053Z,1.67
2017-12-31T11:00:46.376Z,1.80
2017-12-31T11:03:15.639Z,2.97
2017-12-31T11:05:43.963Z,1.90
2017-12-31T11:08:12.795Z,1.80
2017-12-31T11:13:15.155Z,1.73
2017-12-31T11:15:44.232Z,2.37
2017-12-31T11:18:13.352Z,2.23
2017-12-31T11:20:42.323Z,2.30
2017-12-31T11:23:11.058Z,1.83
2017-12-31T11:25:39.908Z,1.70
2017-12-31T11:28:08.872Z,1.90
2017-12-31T11:30:37.170Z,1.77
2017-12-31T11:33:05.890Z,1.70
2017-12-31T11:35:35.372Z,2.23
2017-12-31T11:38:04.390Z,2.50
2017-12-31T11:40:32.714Z,2.13
2017-12-31T11:43:01.131Z,1.60
2017-12-31T11:45:29.460Z,1.80
2017-12-31T11:47:57.775Z,1.77
2017-12-31T11:50:26.887Z,1.77
2017-12-31T11:52:55.278Z,1.90
2017-12-31T11:55:23.631Z,1.67
2017-12-31T11:57:53.305Z,1.50
2017-12-31T12:00:22.376Z,1.60
2017-12-31T12:02:50.700Z,1.60
2017-12-31T12:05:19.156Z,1.63
2017-12-31T12:07:48.043Z,1.50
2017-12-31T12:10:16.417Z,1.50
2017-12-31T12:12:44.779Z,2.80
2017-12-31T12:15:14.004Z,1.10
2017-12-31T12:17:43.588Z,2.13
2017-12-31T12:20:11.950Z,1.53
2017-12-31T12:22:40.289Z,2.30
2017-12-31T12:25:09.111Z,1.77
2017-12-31T12:27:37.537Z,1.97
2017-12-31T12:30:05.952Z,1.40
2017-12-31T12:32:34.394Z,1.70
2017-12-31T12:35:02.699Z,1.60
2017-12-31T12:37:31.479Z,1.90
2017-12-31T12:40:00.520Z,1.47
2017-12-31T12:42:30.200Z,2.13
2017-12-31T12:44:58.511Z,1.63
2017-12-31T12:47:27.151Z,1.90
2017-12-31T12:49:56.151Z,2.30
2017-12-31T12:52:25.180Z,1.80
2017-12-31T12:54:53.519Z,1.20
2017-12-31T12:57:22.303Z,1.50
2017-12-31T12:59:50.666Z,1.70
2017-12-31T13:02:19.509Z,1.40
2017-12-31T13:04:48.043Z,1.23
2017-12-31T13:07:16.401Z,1.40
2017-12-31T13:09:44.757Z,1.50
2017-12-31T13:12:13.149Z,1.57
2017-12-31T13:14:41.477Z,1.57
2017-12-31T13:17:09.928Z,1.70
2017-12-31T13:19:38.490Z,1.60
2017-12-31T13:22:06.827Z,1.37
2017-12-31T13:24:35.896Z,1.50
2017-12-31T13:27:04.292Z,1.43
2017-12-31T13:29:33.007Z,1.73
2017-12-31T13:32:01.340Z,2.30
2017-12-31T13:34:29.878Z,1.60
2017-12-31T13:36:58.203Z,1.20
2017-12-31T13:39:27.015Z,1.40
2017-12-31T13:41:55.617Z,1.30
2017-12-31T13:44:23.993Z,1.60
2017-12-31T13:46:53.618Z,1.80
2017-12-31T13:49:22.579Z,1.67
2017-12-31T13:51:51.920Z,2.50
2017-12-31T13:54:20.862Z,1.60
2017-12-31T13:56:49.953Z,1.57
2017-12-31T13:59:19.095Z,1.70
2017-12-31T14:01:47.935Z,1.60
2017-12-31T14:04:17.385Z,1.10
2017-12-31T14:06:45.788Z,1.47
2017-12-31T14:09:14.141Z,1.50
2017-12-31T14:11:43.094Z,2.40
2017-12-31T14:14:12.109Z,1.73
2017-12-31T14:16:40.959Z,1.53
2017-12-31T14:19:09.375Z,1.53
2017-12-31T14:21:37.743Z,1.20
2017-12-31T14:24:06.538Z,1.97
2017-12-31T14:26:35.119Z,1.30
2017-12-31T14:29:04.152Z,1.50
2017-12-31T14:31:32.509Z,2.20
2017-12-31T14:34:02.250Z,1.80
2017-12-31T14:36:30.743Z,1.87
2017-12-31T14:38:59.748Z,2.20
2017-12-31T14:41:28.255Z,1.93
2017-12-31T14:43:56.654Z,1.50
2017-12-31T14:46:25.409Z,1.87
2017-12-31T14:48:54.524Z,1.90
2017-12-31T14:51:22.985Z,1.83
2017-12-31T14:53:52.084Z,2.17
2017-12-31T14:56:21.327Z,3.20
2017-12-31T14:58:49.840Z,2.50
2017-12-31T15:01:18.164Z,2.67
2017-12-31T15:03:47.495Z,4.43
2017-12-31T15:06:16.097Z,1.83
2017-12-31T15:08:45.057Z,2.50
2017-12-31T15:11:13.642Z,2.00
2017-12-31T15:13:42.009Z,1.67
2017-12-31T15:16:13.370Z,1.40
2017-12-31T15:18:41.818Z,2.57
2017-12-31T15:21:10.185Z,1.63
2017-12-31T15:23:38.580Z,2.80
2017-12-31T15:26:07.636Z,2.10
2017-12-31T15:28:36.494Z,2.57
2017-12-31T15:31:04.860Z,3.50
2017-12-31T15:33:33.619Z,2.40
2017-12-31T15:36:02.453Z,2.50
2017-12-31T15:38:31.583Z,3.43
2017-12-31T15:40:59.980Z,3.73
2017-12-31T15:43:28.868Z,3.27
2017-12-31T15:45:57.567Z,4.10
2017-12-31T15:48:25.998Z,2.80
2017-12-31T15:50:54.357Z,3.03
2017-12-31T15:53:23.489Z,3.47
2017-12-31T15:55:51.945Z,2.97
2017-12-31T15:58:20.306Z,2.90
2017-12-31T16:00:48.653Z,3.07
2017-12-31T16:03:17.654Z,3.27
2017-12-31T16:05:46.750Z,3.43
2017-12-31T16:08:15.712Z,3.70
2017-12-31T16:10:44.116Z,3.80
2017-12-31T16:13:12.612Z,3.70
2017-12-31T16:15:41.628Z,3.57
2017-12-31T16:18:10.496Z,3.83
2017-12-31T16:20:39.734Z,5.00
2017-12-31T16:23:08.084Z,5.30
2017-12-31T16:25:36.903Z,5.43
2017-12-31T16:28:06.074Z,5.17
2017-12-31T16:30:35.195Z,4.60
2017-12-31T16:33:03.541Z,4.77
2017-12-31T16:35:31.891Z,4.47
2017-12-31T16:38:00.278Z,3.07
2017-12-31T16:40:28.591Z,3.10
2017-12-31T16:42:58.357Z,3.63
2017-12-31T16:45:27.209Z,3.97
2017-12-31T16:47:55.716Z,3.97
2017-12-31T16:50:24.065Z,4.87
2017-12-31T16:52:53.233Z,5.30
2017-12-31T16:55:22.128Z,9.33
2017-12-31T16:57:50.456Z,7.30
2017-12-31T17:00:19.020Z,9.40
2017-12-31T17:02:52.991Z,12.60
2017-12-31T17:05:27.850Z,10.97
2017-12-31T17:07:56.899Z,9.17
2017-12-31T17:10:25.348Z,17.60
2017-12-31T17:12:54.386Z,21.13
2017-12-31T17:15:22.559Z,16.57
2017-12-31T17:17:50.942Z,14.60
2017-12-31T17:20:19.313Z,12.00
2017-12-31T17:22:47.787Z,10.23
2017-12-31T17:25:16.820Z,12.23
2017-12-31T17:27:45.289Z,12.47
2017-12-31T17:30:13.653Z,12.40
2017-12-31T17:32:42.022Z,11.33
2017-12-31T17:35:10.400Z,10.20
2017-12-31T17:37:38.757Z,11.70
2017-12-31T17:40:07.084Z,11.50
2017-12-31T17:42:35.658Z,10.30
2017-12-31T17:45:04.826Z,11.13
2017-12-31T17:47:33.160Z,14.57
2017-12-31T17:50:01.602Z,14.03
2017-12-31T17:52:29.985Z,13.10
2017-12-31T17:54:58.428Z,13.57
2017-12-31T17:57:26.815Z,10.30
2017-12-31T17:59:55.280Z,10.90
2017-12-31T18:02:23.636Z,26.00
2017-12-31T18:04:51.945Z,15.80
2017-12-31T18:07:20.269Z,16.70
2017-12-31T18:09:49.447Z,14.50
2017-12-31T18:12:17.807Z,20.40
2017-12-31T18:14:46.124Z,15.87
2017-12-31T18:17:14.520Z,13.97
2017-12-31T18:19:42.871Z,15.87
2017-12-31T18:22:11.180Z,18.77
2017-12-31T18:24:39.695Z,14.93
2017-12-31T18:27:08.014Z,11.00
2017-12-31T18:29:36.347Z,12.00
2017-12-31T18:32:04.755Z,10.97
2017-12-31T18:34:33.114Z,11.03
2017-12-31T18:37:01.424Z,15.87
2017-12-31T18:39:29.837Z,15.37
2017-12-31T18:41:58.155Z,12.83
2017-12-31T18:44:26.467Z,13.37
2017-12-31T18:46:55.622Z,14.30
2017-12-31T18:49:23.985Z,12.80
2017-12-31T18:51:52.442Z,17.13
2017-12-31T18:54:20.751Z,29.90
2017-12-31T18:56:49.117Z,14.90
2017-12-31T18:59:17.605Z,14.83
2017-12-31T19:01:46.681Z,13.57
2017-12-31T19:04:15.044Z,12.33
2017-12-31T19:06:43.458Z,8.67
2017-12-31T19:09:11.789Z,10.10
2017-12-31T19:11:40.122Z,8.50
2017-12-31T19:14:08.579Z,101.67
2017-12-31T19:16:37.122Z,102.07
2017-12-31T19:19:06.555Z,13.57
2017-12-31T19:21:34.892Z,14.63
2017-12-31T19:24:04.100Z,14.20
2017-12-31T19:26:32.706Z,13.17
2017-12-31T19:29:02.819Z,25.67
2017-12-31T19:31:31.384Z,17.40
2017-12-31T19:34:00.359Z,17.90
2017-12-31T19:36:29.514Z,74.27
2017-12-31T19:38:58.557Z,47.13
2017-12-31T19:41:27.062Z,23.63
2017-12-31T19:43:56.076Z,18.57
2017-12-31T19:46:25.042Z,106.17
2017-12-31T19:48:54.155Z,194.50
2017-12-31T19:51:23.423Z,43.60
2017-12-31T19:53:51.779Z,17.70
2017-12-31T19:56:20.253Z,19.27
2017-12-31T19:58:48.653Z,15.60
2017-12-31T20:01:17.127Z,12.00
2017-12-31T20:03:45.485Z,18.60
2017-12-31T20:06:14.698Z,16.23
2017-12-31T20:08:43.638Z,8.13
2017-12-31T20:11:12.879Z,15.53
2017-12-31T20:13:41.824Z,11.60
2017-12-31T20:16:11.117Z,9.50
2017-12-31T20:18:40.159Z,13.03
2017-12-31T20:21:09.102Z,14.10
2017-12-31T20:23:37.466Z,16.27
2017-12-31T20:26:05.986Z,14.10
2017-12-31T20:28:34.745Z,22.70
2017-12-31T20:31:03.911Z,39.07
2017-12-31T20:33:32.978Z,58.27
2017-12-31T20:36:01.289Z,64.90
2017-12-31T20:38:29.690Z,48.30
2017-12-31T20:40:58.634Z,117.07
2017-12-31T20:43:27.510Z,85.53
2017-12-31T20:45:55.903Z,112.07
2017-12-31T20:48:25.030Z,106.23
2017-12-31T20:50:53.829Z,86.90
2017-12-31T20:53:23.977Z,134.07
2017-12-31T20:55:52.382Z,96.93
2017-12-31T20:58:21.171Z,94.43
2017-12-31T21:00:49.576Z,223.97
2017-12-31T21:03:17.983Z,169.63
2017-12-31T21:05:47.059Z,118.90
2017-12-31T21:08:15.435Z,74.23
2017-12-31T21:10:44.326Z,88.83
2017-12-31T21:13:12.759Z,100.77
2017-12-31T21:15:41.365Z,77.60
2017-12-31T21:18:10.670Z,49.77
2017-12-31T21:20:39.152Z,53.03
2017-12-31T21:23:07.470Z,40.40
2017-12-31T21:25:35.899Z,42.23
2017-12-31T21:28:04.263Z,41.97
2017-12-31T21:30:33.428Z,43.10
2017-12-31T21:33:01.752Z,48.27
2017-12-31T21:35:30.128Z,53.67
2017-12-31T21:37:58.640Z,55.90
2017-12-31T21:40:27.588Z,88.70
2017-12-31T21:42:56.247Z,118.00
2017-12-31T21:45:24.866Z,48.40
2017-12-31T21:47:54.066Z,41.50
2017-12-31T21:50:23.177Z,32.83
2017-12-31T21:52:52.110Z,33.73
2017-12-31T21:55:21.685Z,31.43
2017-12-31T21:57:49.991Z,25.77
2017-12-31T22:00:18.360Z,23.63
2017-12-31T22:02:47.818Z,25.50
2017-12-31T22:05:16.369Z,24.50
2017-12-31T22:07:45.111Z,22.10
2017-12-31T22:10:14.502Z,20.80
2017-12-31T22:12:43.957Z,22.83
2017-12-31T22:15:12.343Z,16.10
2017-12-31T22:17:41.544Z,17.07
2017-12-31T22:20:10.382Z,21.27
2017-12-31T22:22:39.182Z,25.43
2017-12-31T22:25:07.688Z,22.47
2017-12-31T22:27:36.795Z,19.63
2017-12-31T22:30:05.434Z,16.03
2017-12-31T22:32:34.520Z,14.20
2017-12-31T22:35:03.021Z,9.90
2017-12-31T22:37:31.953Z,12.37
2017-12-31T22:40:00.567Z,15.40
2017-12-31T22:42:29.277Z,13.93
2017-12-31T22:44:57.694Z,18.10
2017-12-31T22:47:26.491Z,16.73
2017-12-31T22:49:54.937Z,14.77
2017-12-31T22:52:24.046Z,20.17
2017-12-31T22:54:53.084Z,21.93
2017-12-31T22:57:22.029Z,21.40
2017-12-31T22:59:50.471Z,20.13
2017-12-31T23:02:18.918Z,216.80
2017-12-31T23:04:47.912Z,129.13
2017-12-31T23:07:16.338Z,285.63
2017-12-31T23:09:45.291Z,342.30
2017-12-31T23:12:13.863Z,303.07
2017-12-31T23:14:42.235Z,473.67
2017-12-31T23:17:10.613Z,619.30
2017-12-31T23:19:39.129Z,999.90
2017-12-31T23:22:07.521Z,999.90
2017-12-31T23:24:35.923Z,575.20
2017-12-31T23:27:05.552Z,539.93
2017-12-31T23:29:34.744Z,241.53
2017-12-31T23:32:03.115Z,443.17
2017-12-31T23:34:31.836Z,378.27
2017-12-31T23:37:02.007Z,283.37
2017-12-31T23:39:31.283Z,151.17
2017-12-31T23:41:59.618Z,101.80
2017-12-31T23:47:09.314Z,104.23
2017-12-31T23:49:37.827Z,70.07
2017-12-31T23:52:06.463Z,85.00
2017-12-31T23:54:35.625Z,39.00
2017-12-31T23:57:04.138Z,31.87
2017-12-31T23:59:32.910Z,28.30
